Terminal Aerodrome Forecast
Issued by NWS

Home | Current Version | Previous Version | Text Only | Print | Product List | Glossary Off
Versions: 1 2 3 4 5 6 7 8 9 10 11 12 13 14 15 16 17 18 19

000
FTUS43 KPAH 252339
TAFOWB
TAF
KOWB 252339Z 2600/2624 VRB03KT P6SM -SHRA BKN150
     FM260200 VRB03KT P6SM BKN150
     FM260900 00000KT 4SM BR BKN080
     FM261400 25006KT P6SM SCT020
     FM262200 36005KT P6SM -SHRA VCTS SCT030CB=

USA.gov is the U.S. government's official web portal to all federal, state and local government web resources and services.